createdAt,value
2022-10-14T00:01:46.091Z,28.15
2022-10-14T00:04:18.209Z,26.02
2022-10-14T00:06:46.337Z,33.70
2022-10-14T00:15:58.271Z,25.67
2022-10-14T00:18:41.937Z,31.52
2022-10-14T00:21:17.952Z,33.03
2022-10-14T00:23:58.779Z,27.85
2022-10-14T00:26:45.849Z,27.83
2022-10-14T00:42:34.252Z,27.38
2022-10-14T12:14:27.553Z,3.28
2022-10-14T12:16:56.978Z,2.40
2022-10-14T12:19:28.479Z,3.08
2022-10-14T12:21:59.439Z,1.67
2022-10-14T12:24:32.163Z,4.15
2022-10-14T12:27:06.616Z,2.25
2022-10-14T12:29:47.963Z,3.28
2022-10-14T12:34:48.642Z,2.88
2022-10-14T12:37:29.127Z,4.28
2022-10-14T12:40:08.376Z,5.53
2022-10-14T12:42:45.499Z,6.40
2022-10-14T12:45:22.674Z,3.80
2022-10-14T12:48:09.414Z,3.45
2022-10-14T12:50:41.286Z,2.40
2022-10-14T12:53:36.617Z,5.57
2022-10-14T12:56:08.162Z,2.10
2022-10-14T12:58:43.589Z,2.35
2022-10-14T13:01:18.826Z,3.45
2022-10-14T13:03:57.606Z,4.20
2022-10-14T13:06:31.776Z,6.10
2022-10-14T13:09:16.690Z,2.03
2022-10-14T13:11:45.670Z,2.00
2022-10-14T13:14:24.612Z,2.80
2022-10-14T13:16:52.837Z,4.57
2022-10-14T13:19:37.934Z,3.15
2022-10-14T13:22:28.600Z,5.47
2022-10-14T13:25:16.543Z,4.15
2022-10-14T13:27:49.974Z,3.25
2022-10-14T13:30:19.236Z,4.50
2022-10-14T13:32:47.460Z,8.38
2022-10-14T13:35:15.861Z,5.05
2022-10-14T13:38:03.701Z,37.03
2022-10-14T13:40:37.614Z,9.45
2022-10-14T13:43:20.009Z,4.75
2022-10-14T13:45:47.856Z,9.23
2022-10-14T13:48:18.382Z,9.57
2022-10-14T13:50:48.236Z,15.95
2022-10-14T13:53:22.110Z,12.05
2022-10-14T13:55:54.684Z,7.75
2022-10-14T13:59:00.427Z,4.65
2022-10-14T14:01:40.435Z,3.90
2022-10-14T14:04:13.798Z,3.58
2022-10-14T14:07:00.515Z,2.80
2022-10-14T14:09:42.693Z,4.03
2022-10-14T14:12:17.862Z,3.90
2022-10-14T14:14:45.919Z,4.28
2022-10-14T14:17:25.679Z,3.05
2022-10-14T14:23:49.748Z,1.38
2022-10-14T14:26:19.535Z,1.63
2022-10-14T14:28:50.147Z,3.30
2022-10-14T14:32:04.865Z,1.65
2022-10-14T14:34:27.221Z,2.03
2022-10-14T14:37:01.383Z,1.70
2022-10-14T14:39:58.586Z,3.42
2022-10-14T14:42:29.093Z,3.53
2022-10-14T14:45:11.427Z,4.55
2022-10-14T14:47:42.283Z,2.72
2022-10-14T14:50:32.105Z,1.85
2022-10-14T14:53:03.957Z,4.00
2022-10-14T14:55:51.713Z,4.68
2022-10-14T14:58:42.765Z,5.55
2022-10-14T15:01:30.064Z,5.93
2022-10-14T15:07:21.338Z,7.60
2022-10-14T15:10:00.472Z,4.03
2022-10-14T15:12:50.073Z,10.88
2022-10-14T15:15:32.377Z,6.93
2022-10-14T15:18:22.139Z,5.97
2022-10-14T15:20:50.792Z,5.82
2022-10-14T15:23:41.550Z,6.57
2022-10-14T15:26:23.251Z,9.20
2022-10-14T15:29:26.112Z,6.82
2022-10-14T15:32:13.199Z,5.45
2022-10-14T15:34:42.476Z,7.18
2022-10-14T15:37:26.610Z,8.43
2022-10-14T15:40:13.872Z,4.88
2022-10-14T15:42:41.805Z,4.10
2022-10-14T15:45:25.716Z,4.90
2022-10-14T15:47:58.432Z,7.38
2022-10-14T15:50:32.657Z,5.90
2022-10-14T15:53:14.996Z,4.13
2022-10-14T15:56:17.641Z,3.65
2022-10-14T15:59:02.675Z,6.55
2022-10-14T16:01:42.523Z,7.30
2022-10-14T16:04:26.181Z,5.85
2022-10-14T16:06:57.377Z,10.55
2022-10-14T16:09:30.961Z,8.50
2022-10-14T16:12:36.689Z,14.43
2022-10-14T16:17:47.552Z,6.55
2022-10-14T16:20:18.341Z,7.18
2022-10-14T16:23:06.768Z,4.70
2022-10-14T16:25:55.079Z,6.68
2022-10-14T16:28:33.381Z,5.47
2022-10-14T16:31:25.985Z,8.80
2022-10-14T16:34:01.099Z,8.43
2022-10-14T16:40:05.818Z,12.43
2022-10-14T16:42:46.480Z,6.70
2022-10-14T16:45:15.445Z,10.50
2022-10-14T16:47:44.686Z,8.60
2022-10-14T16:50:14.819Z,5.80
2022-10-14T16:53:05.182Z,9.43
2022-10-14T16:55:42.809Z,5.80
2022-10-14T16:58:20.046Z,8.95
2022-10-14T17:04:06.587Z,5.40
2022-10-14T17:06:35.394Z,6.75
2022-10-14T17:09:03.429Z,11.13
2022-10-14T17:12:08.111Z,11.70
2022-10-14T17:14:41.626Z,9.27
2022-10-14T17:17:38.354Z,5.67
2022-10-14T17:20:25.821Z,8.10
2022-10-14T17:23:01.250Z,8.63
2022-10-14T17:25:30.130Z,8.63
2022-10-14T17:28:11.864Z,9.10
2022-10-14T17:30:44.351Z,11.43
2022-10-14T17:33:12.475Z,15.02
2022-10-14T17:35:40.220Z,10.18
2022-10-14T17:38:08.957Z,13.65
2022-10-14T17:40:37.855Z,9.85
2022-10-14T17:43:07.854Z,8.00
2022-10-14T17:45:39.490Z,8.02
2022-10-14T17:48:26.090Z,11.43
2022-10-14T17:50:58.175Z,9.90
2022-10-14T17:53:31.159Z,10.10
2022-10-14T17:56:09.306Z,15.02
2022-10-14T17:58:38.273Z,12.27
2022-10-14T18:04:39.955Z,16.48
2022-10-14T18:07:10.200Z,10.45
2022-10-14T18:09:38.939Z,15.32
2022-10-14T18:12:09.222Z,12.95
2022-10-14T18:14:40.286Z,12.73
2022-10-14T18:17:15.945Z,17.92
2022-10-14T18:19:53.402Z,11.15
2022-10-14T18:22:40.002Z,14.00
2022-10-14T18:25:31.562Z,23.10
2022-10-14T18:28:01.745Z,12.57
2022-10-14T18:30:39.746Z,12.40
2022-10-14T18:33:16.284Z,14.27
2022-10-14T18:35:58.623Z,13.63
2022-10-14T18:38:43.312Z,14.30
2022-10-14T18:41:18.010Z,12.90
2022-10-14T18:43:49.569Z,14.43
2022-10-14T18:46:29.968Z,14.85
2022-10-14T18:49:05.371Z,15.13
2022-10-14T18:51:42.603Z,14.63
2022-10-14T18:54:35.524Z,20.33
2022-10-14T18:57:08.803Z,18.00
2022-10-14T18:59:45.212Z,13.27
2022-10-14T19:02:47.523Z,11.10
2022-10-14T19:05:19.254Z,15.27
2022-10-14T19:07:51.497Z,16.05
2022-10-14T19:10:49.330Z,13.45
2022-10-14T19:13:17.427Z,12.43
2022-10-14T19:16:04.421Z,17.15
2022-10-14T19:18:33.502Z,10.73
2022-10-14T19:21:23.387Z,20.50
2022-10-14T19:24:08.314Z,16.27
2022-10-14T19:26:51.758Z,17.58
2022-10-14T19:29:19.921Z,16.73
2022-10-14T19:31:48.019Z,16.15
2022-10-14T19:34:16.975Z,16.13
2022-10-14T19:36:48.076Z,12.75
2022-10-14T19:39:17.569Z,15.15
2022-10-14T19:41:50.071Z,12.63
2022-10-14T19:44:18.553Z,15.25
2022-10-14T19:46:47.681Z,10.55
2022-10-14T19:49:16.907Z,9.25
2022-10-14T19:51:47.768Z,10.82
2022-10-14T19:54:32.125Z,17.13
2022-10-14T19:56:59.914Z,13.55
2022-10-14T19:59:28.100Z,8.15
2022-10-14T20:02:06.476Z,8.45
2022-10-14T20:04:46.725Z,8.05
2022-10-14T20:07:24.504Z,7.78
2022-10-14T20:10:09.194Z,8.30
2022-10-14T20:12:37.988Z,9.13
2022-10-14T20:15:17.335Z,11.55
2022-10-14T20:17:59.333Z,10.05
2022-10-14T20:20:30.535Z,9.50
2022-10-14T20:23:21.344Z,7.00
2022-10-14T20:26:23.170Z,12.32
2022-10-14T20:29:02.934Z,12.40
2022-10-14T20:31:31.319Z,8.75
2022-10-14T20:34:10.099Z,17.75
2022-10-14T20:36:51.236Z,26.77
2022-10-14T20:39:19.948Z,10.45
2022-10-14T20:41:51.560Z,12.32
2022-10-14T20:44:28.957Z,9.13
2022-10-14T20:46:57.272Z,8.70
2022-10-14T20:49:38.855Z,9.02
2022-10-14T20:54:49.196Z,12.00
2022-10-14T20:57:20.297Z,14.80
2022-10-14T20:59:56.648Z,9.80
2022-10-14T21:02:32.568Z,8.88
2022-10-14T21:05:13.802Z,12.80
2022-10-14T21:07:52.272Z,9.18
2022-10-14T21:10:44.231Z,12.25
2022-10-14T21:13:16.342Z,11.60
2022-10-14T21:15:54.649Z,15.02
2022-10-14T21:18:22.909Z,13.85
2022-10-14T21:21:18.631Z,12.35
2022-10-14T21:23:54.775Z,10.70
2022-10-14T21:26:24.799Z,14.23
2022-10-14T21:28:52.793Z,9.05
2022-10-14T21:31:39.103Z,13.38
2022-10-14T21:34:08.319Z,14.52
2022-10-14T21:36:38.661Z,10.95
2022-10-14T21:39:13.717Z,13.90
2022-10-14T21:41:45.506Z,16.85
2022-10-14T21:44:20.995Z,11.90
2022-10-14T21:46:51.973Z,18.02
2022-10-14T21:49:19.765Z,19.55
2022-10-14T21:52:00.148Z,16.77
2022-10-14T21:55:05.972Z,14.95
2022-10-14T21:57:55.353Z,18.00
2022-10-14T22:00:35.575Z,16.80
2022-10-14T22:03:03.357Z,19.67
2022-10-14T22:05:42.425Z,15.30
2022-10-14T22:08:15.903Z,16.38
2022-10-14T22:10:45.879Z,16.45
2022-10-14T22:13:21.970Z,18.70
2022-10-14T22:15:52.148Z,14.48
2022-10-14T22:18:23.164Z,16.10
2022-10-14T22:20:52.076Z,15.80
2022-10-14T22:23:20.050Z,13.57
2022-10-14T22:25:53.003Z,12.68
2022-10-14T22:28:36.479Z,15.88
2022-10-14T22:31:05.607Z,14.90
2022-10-14T22:33:57.144Z,14.50
2022-10-14T22:36:26.576Z,16.65
2022-10-14T22:38:54.863Z,13.38
2022-10-14T22:41:38.134Z,12.43
2022-10-14T22:44:16.126Z,14.80
2022-10-14T22:46:54.716Z,12.23
2022-10-14T22:49:31.152Z,16.27
2022-10-14T22:52:15.709Z,17.67
2022-10-14T22:55:01.279Z,13.65
2022-10-14T22:57:38.246Z,16.48
2022-10-14T23:00:10.406Z,16.23
2022-10-14T23:02:57.252Z,24.20
2022-10-14T23:05:25.364Z,16.63
2022-10-14T23:08:30.657Z,18.30
2022-10-14T23:11:18.465Z,26.90
2022-10-14T23:13:47.063Z,17.58
2022-10-14T23:16:28.127Z,18.83
2022-10-14T23:18:59.082Z,15.75
2022-10-14T23:21:36.233Z,16.52
2022-10-14T23:24:34.309Z,15.32
2022-10-14T23:27:09.469Z,17.05
2022-10-14T23:29:39.489Z,14.38
2022-10-14T23:32:09.348Z,9.68
2022-10-14T23:34:37.138Z,11.90
2022-10-14T23:37:15.056Z,9.98
2022-10-14T23:40:03.290Z,8.18
2022-10-14T23:42:37.431Z,11.68
2022-10-14T23:45:10.918Z,12.55
2022-10-14T23:47:52.350Z,6.85
2022-10-14T23:50:22.309Z,5.20
2022-10-14T23:53:01.582Z,8.82
2022-10-14T23:55:29.400Z,9.05
2022-10-14T23:58:08.549Z,5.65
